Meteo Giornale » Osservazioni meteo Italia » Torino-Caselle

ore: 05:50 - Osservazioni Meteo Torino-Caselle
Lat. 45° 13' N Lon. 7° 39' E Alt. 301 metri s.l.m.

molto_nuvoloso Europe/Rome

6 °C

Molto Nuvoloso

Temp. 24 Ore

2 °C

15 °C

Nord

13 Km/h

Dew point 5 °C

Umidità 93 %

Visibilità  9 Km

Il sole sorge alle ore 06:56

Il sole tramonta alle ore 18:24

Data e Ora Cielo e Fenomeni T °C DP °C Um. % Pres. hPa Vis. km Vento km/h
Oggi h: 05:50 molto_nuvoloso Molto Nuvoloso 6 5 93 1023 9 N 13
Oggi h: 05:20 molto_nuvoloso Molto Nuvoloso 6 4 86 1022 10 E/NE 11.1
Oggi h: 04:50 molto_nuvoloso Molto Nuvoloso 7 3 75 1021 10 E 7.4
Oggi h: 04:20 molto_nuvoloso Molto Nuvoloso 7 2 70 1021 10 N 1.8
Oggi h: 03:50 molto_nuvoloso Molto Nuvoloso 7 1 65 1021 10 N 3.7
Oggi h: 03:20 coperto Coperto 8 1 61 1020 10 N 3.7
Oggi h: 02:50 coperto Coperto 7 1 65 1020 10 N 7.4
Oggi h: 02:20 coperto Coperto 7 2 70 1020 10 N 9.3
Oggi h: 01:50 molto_nuvoloso Molto Nuvoloso 7 1 65 1020 10 N 5.5
Oggi h: 01:20 molto_nuvoloso Molto Nuvoloso 8 1 61 1020 10 N/NO 9.3
Oggi h: 00:50 molto_nuvoloso Molto Nuvoloso 7 1 65 1019 10 N/NO 13
Oggi h: 00:20 molto_nuvoloso Molto Nuvoloso 6 1 70 1019 10 NO 7.4
Ieri h: 23:50 poco_nuvoloso Poco Nuvoloso 8 1 61 1019 10 N 3.7
Ieri h: 23:20 nuvoloso Nuvoloso 8 1 61 1018 10 N 5.5
Ieri h: 22:50 sereno Sereno 8 1 61 1018 10 N 5.5
Ieri h: 22:20 sereno Sereno 7 1 65 1018 10 N 3.7
Ieri h: 21:50 sereno Sereno 9 1 57 1017 10 O/NO 11.1
Ieri h: 21:20 sereno Sereno 9 2 61 1017 10 NO 9.3
Ieri h: 20:50 sereno Sereno 10 2 57 1017 6 NO 7.4
Ieri h: 19:50 sereno Sereno 11 3 57 1016 6 O/NO 7.4
Ieri h: 19:20 sereno Sereno 12 3 54 1016 8 N 3.7
Ieri h: 18:50 sereno Sereno 13 4 54 1016 10 N 3.7
Ieri h: 18:20 sereno Sereno 13 4 54 1015 10 N 1.8
Ieri h: 17:50 sereno Sereno 14 4 50 1015 10 N 3.7
Ieri h: 17:20 sereno Sereno 14 4 50 1015 10 N 3.7
Ieri h: 16:50 sereno Sereno 15 3 44 1015 10 N 1.8
Ieri h: 16:20 sereno Sereno 15 3 44 1015 10 N 3.7
Ieri h: 15:50 sereno Sereno 15 2 41 1014 10 N 3.7
Ieri h: 15:20 sereno Sereno 15 2 41 1015 10 N 5.5
Ieri h: 14:50 sereno Sereno 15 2 41 1015 10 SE 7.4
Ieri h: 14:20 sereno Sereno 14 2 44 1015 10 N 5.5
Ieri h: 13:50 sereno Sereno 14 3 47 1015 10 N 5.5
Ieri h: 12:50 sereno Sereno 14 4 50 1016 10 E/SE 7.4
Ieri h: 12:20 sereno Sereno 13 3 50 1016 10 N 5.5
Ieri h: 11:50 sereno Sereno 12 4 57 1016 10 E/SE 7.4
Ieri h: 11:20 sereno Sereno 11 3 57 1016 10 N 5.5
Ieri h: 10:50 sereno Sereno 11 3 57 1016 10 N 5.5
Ieri h: 10:20 sereno Sereno 10 3 61 1016 10 N 5.5
Ieri h: 09:50 sereno Sereno 8 3 70 1016 10 N 5.5
Ieri h: 09:20 sereno Sereno 8 2 65 1016 10 N 5.5
Ieri h: 08:50 sereno Sereno 5 1 75 1016 8 N 5.5
Ieri h: 08:20 sereno Sereno 4 0 75 1016 8 O 9.3
Ieri h: 07:50 sereno Sereno 3 -1 74 1016 10 O/NO 7.4
Ieri h: 07:20 sereno Sereno 2 -1 80 1016 10 O/NO 7.4
Ieri h: 06:50 sereno Sereno 3 -1 74 1016 9 O 7.4
Ieri h: 05:50 sereno Sereno 3 -1 74 1016 10 N 1.8